createdAt,value
2023-05-19T04:15:10.675Z,15.10
2023-05-19T04:16:10.700Z,15.50
2023-05-19T04:17:10.678Z,17.00
2023-05-19T04:18:10.688Z,16.80
2023-05-19T04:19:10.701Z,15.40
2023-05-19T04:20:10.603Z,16.70
2023-05-19T04:21:10.606Z,17.80
2023-05-19T04:22:10.583Z,14.00
2023-05-19T04:23:10.606Z,17.90
2023-05-19T04:24:10.555Z,14.30
2023-05-19T04:25:10.585Z,16.30
2023-05-19T04:26:10.526Z,17.20
2023-05-19T04:27:10.519Z,17.40
2023-05-19T04:28:10.522Z,18.00
2023-05-19T04:29:10.504Z,13.90
2023-05-19T04:30:10.495Z,15.80
2023-05-19T04:31:10.502Z,18.70
2023-05-19T04:32:10.466Z,17.00
2023-05-19T04:33:10.625Z,16.90
2023-05-19T04:34:10.437Z,20.00
2023-05-19T04:35:10.436Z,14.80
2023-05-19T04:36:10.429Z,16.00
2023-05-19T04:37:10.433Z,18.00
2023-05-19T04:38:10.377Z,14.30
2023-05-19T04:39:10.368Z,16.90
2023-05-19T04:40:10.350Z,14.20
2023-05-19T04:41:10.352Z,18.00
2023-05-19T04:42:10.351Z,14.10
2023-05-19T04:43:10.318Z,14.70
2023-05-19T04:44:10.299Z,16.40
2023-05-19T04:45:10.289Z,14.40
2023-05-19T04:46:12.424Z,15.90
2023-05-19T04:47:10.392Z,18.80
2023-05-19T04:48:10.259Z,10.90
2023-05-19T04:49:10.243Z,15.40
2023-05-19T04:50:10.219Z,12.20
2023-05-19T04:51:10.225Z,13.60
2023-05-19T04:52:10.206Z,16.90
2023-05-19T04:53:10.180Z,21.10
2023-05-19T04:54:10.256Z,14.60
2023-05-19T04:55:10.181Z,19.80
2023-05-19T04:56:10.154Z,13.70
2023-05-19T04:57:10.132Z,11.80
2023-05-19T04:58:10.133Z,10.30
2023-05-19T04:59:10.109Z,12.30
2023-05-19T05:00:10.115Z,10.10
2023-05-19T05:01:10.100Z,12.50
2023-05-19T05:02:10.213Z,12.90
2023-05-19T05:03:10.156Z,14.50
2023-05-19T05:04:10.079Z,15.90
2023-05-19T05:05:10.092Z,15.10
2023-05-19T05:06:10.007Z,13.80
2023-05-19T05:07:10.019Z,14.10
2023-05-19T05:08:09.978Z,11.70
2023-05-19T05:09:09.975Z,17.20
2023-05-19T05:10:09.988Z,11.50
2023-05-19T05:11:09.956Z,15.60
2023-05-19T05:12:09.927Z,14.90
2023-05-19T05:13:11.704Z,11.90
2023-05-19T05:14:09.912Z,14.90
2023-05-19T05:15:09.907Z,11.90
2023-05-19T05:16:09.931Z,10.40
2023-05-19T05:17:09.866Z,13.00
2023-05-19T05:18:09.900Z,13.90
2023-05-19T05:19:09.882Z,14.70
2023-05-19T05:20:09.830Z,11.40
2023-05-19T05:21:09.821Z,11.70
2023-05-19T05:22:09.798Z,15.50
2023-05-19T05:23:09.799Z,12.00
2023-05-19T05:24:09.777Z,16.20
2023-05-19T05:25:09.763Z,11.20
2023-05-19T05:26:09.746Z,13.70
2023-05-19T05:27:09.745Z,12.20
2023-05-19T05:28:09.727Z,10.70
2023-05-19T05:29:16.779Z,14.90
2023-05-19T05:30:09.696Z,11.60
2023-05-19T05:31:09.701Z,10.80
2023-05-19T05:32:09.697Z,9.70
2023-05-19T05:33:09.901Z,14.50
2023-05-19T05:34:09.658Z,13.20
2023-05-19T05:35:09.644Z,11.60
2023-05-19T05:36:09.634Z,11.10
2023-05-19T05:37:09.626Z,10.20
2023-05-19T05:38:09.624Z,9.30
2023-05-19T05:39:09.589Z,11.50
2023-05-19T05:40:09.574Z,10.90
2023-05-19T05:41:09.572Z,9.90
2023-05-19T05:42:09.559Z,11.80
2023-05-19T05:43:09.552Z,8.20
2023-05-19T05:44:09.525Z,11.70
2023-05-19T05:45:09.506Z,10.00
2023-05-19T05:46:09.572Z,9.70
2023-05-19T05:47:09.501Z,11.60
2023-05-19T05:48:09.529Z,12.00
2023-05-19T05:49:09.448Z,8.50
2023-05-19T05:50:09.445Z,9.00
2023-05-19T05:51:09.453Z,12.00
2023-05-19T05:52:09.471Z,10.90
2023-05-19T05:53:09.412Z,13.90
2023-05-19T05:54:09.422Z,12.80
2023-05-19T05:55:09.385Z,12.00
2023-05-19T05:56:09.358Z,13.20
2023-05-19T05:57:09.375Z,11.60
2023-05-19T05:58:09.344Z,16.90
2023-05-19T05:59:09.326Z,10.70
2023-05-19T06:00:09.305Z,10.40
2023-05-19T06:01:09.307Z,8.90
2023-05-19T06:02:09.394Z,9.40
2023-05-19T06:03:09.396Z,9.30
2023-05-19T06:04:09.250Z,15.20
2023-05-19T06:05:09.288Z,8.50
2023-05-19T06:06:09.242Z,10.30
2023-05-19T06:07:09.217Z,12.60
2023-05-19T06:08:09.282Z,12.00
2023-05-19T06:09:09.202Z,10.70
2023-05-19T06:10:09.200Z,9.70
2023-05-19T06:11:09.206Z,11.70
2023-05-19T06:12:09.183Z,9.80
2023-05-19T06:13:09.151Z,10.50
2023-05-19T06:14:09.123Z,8.50
2023-05-19T06:15:09.122Z,10.10
2023-05-19T06:16:09.137Z,9.00
2023-05-19T06:17:09.092Z,10.10
2023-05-19T06:18:09.128Z,10.90
2023-05-19T06:19:09.113Z,9.70
2023-05-19T06:20:09.106Z,11.90
2023-05-19T06:21:09.071Z,8.10
2023-05-19T06:22:09.033Z,9.50
2023-05-19T06:23:09.012Z,8.80
2023-05-19T06:24:09.015Z,8.00
2023-05-19T06:25:09.008Z,8.10
2023-05-19T06:26:09.001Z,10.70
2023-05-19T06:27:08.997Z,7.60
2023-05-19T06:28:08.947Z,9.10
2023-05-19T06:29:08.963Z,9.10
2023-05-19T06:30:08.925Z,8.70
2023-05-19T06:31:08.955Z,10.10
2023-05-19T06:32:08.887Z,9.00
2023-05-19T06:33:08.937Z,11.20
2023-05-19T06:34:08.872Z,8.70
2023-05-19T06:35:08.867Z,7.80
2023-05-19T06:36:08.837Z,7.30
2023-05-19T06:37:08.825Z,5.30
2023-05-19T06:38:08.819Z,8.40
2023-05-19T06:39:08.825Z,9.40
2023-05-19T06:40:08.797Z,8.00
2023-05-19T06:41:08.774Z,7.70
2023-05-19T06:42:08.765Z,8.40
2023-05-19T06:43:08.747Z,7.40
2023-05-19T06:44:08.744Z,8.70
2023-05-19T06:45:08.733Z,6.90
2023-05-19T06:46:08.704Z,9.70
2023-05-19T06:47:08.788Z,11.90
2023-05-19T06:48:08.721Z,6.40
2023-05-19T06:49:08.694Z,4.50
2023-05-19T06:50:08.652Z,9.20
2023-05-19T06:51:08.656Z,7.30
2023-05-19T06:52:08.638Z,9.10
2023-05-19T06:53:08.621Z,8.60
2023-05-19T06:54:08.619Z,5.50
2023-05-19T06:55:08.612Z,5.60
2023-05-19T06:56:08.579Z,8.40
2023-05-19T06:57:08.570Z,10.20
2023-05-19T06:58:08.552Z,8.70
2023-05-19T06:59:08.552Z,6.50
2023-05-19T07:00:08.526Z,7.50
2023-05-19T07:01:08.636Z,6.00
2023-05-19T07:02:08.565Z,6.60
2023-05-19T07:03:08.605Z,9.90
2023-05-19T07:04:08.568Z,11.20
2023-05-19T07:05:08.468Z,8.20
2023-05-19T07:06:08.658Z,11.60
2023-05-19T07:07:08.459Z,7.90
2023-05-19T07:08:08.435Z,6.50
2023-05-19T07:09:08.412Z,7.60
2023-05-19T07:10:08.409Z,8.00
2023-05-19T07:11:08.392Z,9.80
2023-05-19T07:12:08.386Z,5.90
2023-05-19T07:13:08.376Z,7.50
2023-05-19T07:14:08.350Z,7.60
2023-05-19T07:15:08.342Z,8.20
2023-05-19T07:16:08.341Z,9.20
2023-05-19T07:17:08.335Z,9.80
2023-05-19T07:18:08.357Z,9.10
2023-05-19T07:19:08.337Z,7.30
2023-05-19T07:20:08.267Z,7.40
2023-05-19T07:21:08.270Z,7.20
2023-05-19T07:22:08.302Z,6.30
2023-05-19T07:23:08.234Z,11.20
2023-05-19T07:24:08.231Z,4.30
2023-05-19T07:25:08.231Z,7.40
2023-05-19T07:26:08.208Z,5.20
2023-05-19T07:27:08.193Z,8.90
2023-05-19T07:28:08.160Z,5.10
2023-05-19T07:29:08.170Z,7.00
2023-05-19T07:30:08.145Z,6.10
2023-05-19T07:31:08.136Z,7.10
2023-05-19T07:32:08.137Z,7.60
2023-05-19T07:33:08.201Z,8.60
2023-05-19T07:34:08.087Z,9.90
2023-05-19T07:35:08.082Z,5.50
2023-05-19T07:36:08.154Z,7.40
2023-05-19T07:37:08.051Z,5.80
2023-05-19T07:38:08.044Z,5.90
2023-05-19T07:39:08.057Z,7.10
2023-05-19T07:40:08.000Z,7.70
2023-05-19T07:41:08.012Z,7.00
2023-05-19T07:42:07.979Z,10.20
2023-05-19T07:43:07.972Z,6.40
2023-05-19T07:44:08.084Z,7.50
2023-05-19T07:45:07.934Z,8.60
2023-05-19T07:46:07.966Z,7.50
2023-05-19T07:47:07.942Z,6.70
2023-05-19T07:48:08.015Z,8.40
2023-05-19T07:49:07.900Z,5.90
2023-05-19T07:50:07.900Z,5.60
2023-05-19T07:51:07.876Z,8.50
2023-05-19T07:52:07.860Z,8.60
2023-05-19T07:53:07.840Z,5.50
2023-05-19T07:54:07.822Z,6.90
2023-05-19T07:55:08.017Z,7.00
2023-05-19T07:56:07.801Z,8.50
2023-05-19T07:57:07.786Z,5.80
2023-05-19T07:58:07.757Z,6.90
2023-05-19T07:59:07.771Z,8.40
2023-05-19T08:00:07.811Z,9.30
2023-05-19T08:01:07.740Z,5.30
2023-05-19T08:02:07.831Z,7.80
2023-05-19T08:03:07.846Z,8.10
2023-05-19T08:04:09.735Z,7.70
2023-05-19T08:05:07.700Z,6.60
2023-05-19T08:06:07.668Z,7.70
2023-05-19T08:07:07.655Z,6.70
2023-05-19T08:08:07.638Z,6.60
2023-05-19T08:09:07.641Z,7.60
2023-05-19T08:10:07.630Z,6.60
2023-05-19T08:11:07.610Z,8.70
2023-05-19T08:12:07.590Z,8.10
2023-05-19T08:13:07.582Z,4.80
2023-05-19T08:14:07.582Z,7.20
2023-05-19T08:15:07.561Z,7.20
2023-05-19T08:16:07.645Z,4.90
2023-05-19T08:17:07.535Z,7.10
2023-05-19T08:18:07.622Z,9.20
2023-05-19T08:19:07.581Z,6.90
2023-05-19T08:20:07.486Z,6.40
2023-05-19T08:21:07.484Z,6.90
2023-05-19T08:22:07.458Z,7.20
2023-05-19T08:23:07.468Z,4.80
2023-05-19T08:24:07.448Z,7.80
2023-05-19T08:25:07.438Z,8.10
2023-05-19T08:26:07.421Z,4.20
2023-05-19T08:27:07.392Z,5.60
2023-05-19T08:28:07.395Z,7.20
2023-05-19T08:29:07.377Z,6.00
2023-05-19T08:30:07.364Z,7.90
2023-05-19T08:31:07.383Z,6.70
2023-05-19T08:32:07.326Z,5.90
2023-05-19T08:33:07.418Z,6.80
2023-05-19T08:34:07.302Z,6.70
2023-05-19T08:35:07.287Z,6.20
2023-05-19T08:36:07.281Z,7.30
2023-05-19T08:37:07.296Z,8.40
2023-05-19T08:38:07.261Z,6.30
2023-05-19T08:39:07.242Z,6.00
2023-05-19T08:40:07.233Z,7.60
2023-05-19T08:41:07.225Z,7.40
2023-05-19T08:42:07.200Z,7.00
2023-05-19T08:43:07.213Z,5.90
2023-05-19T08:44:07.182Z,8.80
2023-05-19T08:45:07.160Z,8.90
2023-05-19T08:46:07.188Z,4.60
2023-05-19T08:47:07.324Z,5.50
2023-05-19T08:48:07.145Z,8.60
2023-05-19T08:49:07.112Z,6.60
2023-05-19T08:50:07.092Z,8.10
2023-05-19T08:51:07.085Z,2.90
2023-05-19T08:52:07.082Z,9.20
2023-05-19T08:54:07.031Z,6.10
2023-05-19T08:55:07.036Z,6.40
2023-05-19T08:56:07.005Z,8.60
2023-05-19T08:57:07.003Z,6.20
2023-05-19T08:58:06.980Z,7.20
2023-05-19T08:59:06.959Z,7.70
2023-05-19T09:00:06.960Z,5.10
2023-05-19T09:01:06.985Z,6.60
2023-05-19T09:02:06.929Z,8.10
2023-05-19T09:03:18.236Z,7.40
2023-05-19T09:04:08.064Z,6.30
2023-05-19T09:05:06.954Z,5.30
2023-05-19T09:06:06.927Z,7.00
2023-05-19T09:07:06.870Z,5.50
2023-05-19T09:08:06.850Z,4.90
2023-05-19T09:09:06.854Z,6.20
2023-05-19T09:10:06.822Z,10.60
2023-05-19T09:11:06.823Z,9.60
2023-05-19T09:12:06.801Z,5.40
2023-05-19T09:13:06.784Z,6.40
2023-05-19T09:14:06.769Z,5.10
2023-05-19T09:15:06.765Z,7.70
2023-05-19T09:16:06.836Z,3.20
2023-05-19T09:17:06.815Z,7.10
2023-05-19T09:18:06.786Z,7.00
2023-05-19T09:19:06.745Z,4.70
2023-05-19T09:20:06.716Z,5.10
2023-05-19T09:21:06.680Z,5.10
2023-05-19T09:22:06.747Z,4.20
2023-05-19T09:23:06.660Z,6.80
2023-05-19T09:24:06.693Z,4.60
2023-05-19T09:25:06.637Z,3.90
2023-05-19T09:26:06.701Z,6.10
2023-05-19T09:27:06.605Z,6.70
2023-05-19T09:28:06.598Z,5.60
2023-05-19T09:29:06.602Z,5.70
2023-05-19T09:30:06.605Z,4.40
2023-05-19T09:31:06.674Z,3.50
2023-05-19T09:32:06.621Z,5.60
2023-05-19T09:33:06.550Z,5.50
2023-05-19T09:34:06.626Z,5.20
2023-05-19T09:35:06.524Z,3.90
2023-05-19T09:36:06.533Z,4.60
2023-05-19T09:37:06.472Z,4.90
2023-05-19T09:38:06.458Z,4.30
2023-05-19T09:39:06.457Z,4.30
2023-05-19T09:40:06.463Z,7.90
2023-05-19T09:41:06.421Z,3.40
2023-05-19T09:42:06.412Z,5.00
2023-05-19T09:43:06.402Z,5.30
2023-05-19T09:44:06.394Z,4.60
2023-05-19T09:45:06.369Z,5.80
2023-05-19T09:46:06.548Z,6.50
2023-05-19T09:47:06.349Z,3.30
2023-05-19T09:48:06.394Z,3.60
2023-05-19T09:49:06.326Z,6.30
2023-05-19T09:50:06.303Z,9.50
2023-05-19T09:51:06.349Z,4.40
2023-05-19T09:52:06.277Z,6.40
2023-05-19T09:53:06.282Z,5.40
2023-05-19T09:54:06.247Z,4.00
2023-05-19T09:55:06.266Z,5.80
2023-05-19T09:56:06.219Z,7.80
2023-05-19T09:57:08.123Z,6.40
2023-05-19T09:58:06.200Z,6.70
2023-05-19T09:59:06.186Z,4.30
2023-05-19T10:00:06.184Z,5.80
2023-05-19T10:01:06.265Z,3.30
2023-05-19T10:02:06.170Z,6.00
2023-05-19T10:03:06.272Z,2.90
2023-05-19T10:04:06.305Z,5.60
2023-05-19T10:05:06.151Z,6.00
2023-05-19T10:06:06.090Z,4.10
2023-05-19T10:07:06.107Z,4.50
2023-05-19T10:08:06.097Z,5.00
2023-05-19T10:09:06.050Z,5.40
2023-05-19T10:10:06.042Z,2.90
2023-05-19T10:11:06.035Z,5.20
2023-05-19T10:12:06.032Z,6.80
2023-05-19T10:13:06.008Z,4.90
2023-05-19T10:14:05.999Z,7.60
2023-05-19T10:15:05.992Z,4.60
2023-05-19T10:16:06.012Z,5.50
2023-05-19T10:17:06.011Z,6.60
2023-05-19T10:18:05.966Z,5.40
2023-05-19T10:19:05.979Z,5.00
2023-05-19T10:20:05.925Z,6.20
2023-05-19T10:21:05.919Z,3.60
2023-05-19T10:22:05.878Z,6.50
2023-05-19T10:23:05.881Z,6.60
2023-05-19T10:24:05.861Z,4.60
2023-05-19T10:25:05.861Z,7.40
2023-05-19T10:26:05.845Z,4.60
2023-05-19T10:27:05.851Z,5.40
2023-05-19T10:28:05.823Z,4.50
2023-05-19T10:29:05.814Z,4.70
2023-05-19T10:30:05.800Z,3.60
2023-05-19T10:31:05.794Z,5.00
2023-05-19T10:32:05.832Z,3.50
2023-05-19T10:33:05.811Z,8.80
2023-05-19T10:34:05.733Z,7.50
2023-05-19T10:35:05.730Z,5.10
2023-05-19T10:36:05.711Z,4.90
2023-05-19T10:37:05.706Z,4.70
2023-05-19T10:38:05.675Z,4.80
2023-05-19T10:39:05.671Z,8.60
2023-05-19T10:40:05.672Z,3.70
2023-05-19T10:41:05.645Z,6.90
2023-05-19T10:42:05.630Z,5.70
2023-05-19T10:43:05.619Z,5.00
2023-05-19T10:44:05.609Z,4.80
2023-05-19T10:45:05.604Z,6.10
2023-05-19T10:46:05.566Z,3.00
2023-05-19T10:47:05.615Z,5.20
2023-05-19T10:48:05.604Z,4.50
2023-05-19T10:49:05.552Z,5.20
2023-05-19T10:50:05.519Z,7.60
2023-05-19T10:51:06.348Z,4.70
2023-05-19T10:52:05.504Z,6.80
2023-05-19T10:53:05.498Z,3.00
2023-05-19T10:54:05.483Z,3.60
2023-05-19T10:55:05.454Z,4.20
2023-05-19T10:56:05.442Z,4.80
2023-05-19T10:57:05.434Z,4.40
2023-05-19T10:58:05.444Z,3.20
2023-05-19T10:59:05.435Z,4.90
2023-05-19T11:00:05.497Z,3.20
2023-05-19T11:01:05.387Z,4.70
2023-05-19T11:02:05.414Z,4.90
2023-05-19T11:03:05.412Z,5.90
2023-05-19T11:04:05.377Z,4.30
2023-05-19T11:05:05.344Z,4.10
2023-05-19T11:06:05.316Z,4.20
2023-05-19T11:07:05.314Z,6.00
2023-05-19T11:08:05.294Z,7.00
2023-05-19T11:09:05.286Z,5.10
2023-05-19T11:10:05.269Z,6.80
2023-05-19T11:11:05.261Z,5.10
2023-05-19T11:12:05.265Z,5.40
2023-05-19T11:13:06.449Z,4.00
2023-05-19T11:14:05.215Z,6.10
2023-05-19T11:15:05.208Z,6.20
2023-05-19T11:16:05.222Z,5.80
2023-05-19T11:17:05.267Z,5.30
2023-05-19T11:18:05.217Z,4.80
2023-05-19T11:19:05.185Z,8.30
2023-05-19T11:20:05.137Z,3.10
2023-05-19T11:21:05.184Z,5.10
2023-05-19T11:22:05.131Z,5.60
2023-05-19T11:23:05.151Z,5.10
2023-05-19T11:24:05.130Z,5.10
2023-05-19T11:25:05.086Z,6.40
2023-05-19T11:26:05.085Z,5.40
2023-05-19T11:27:05.102Z,4.60
2023-05-19T11:28:05.036Z,7.00
2023-05-19T11:29:55.439Z,6.90
2023-05-19T11:30:55.440Z,3.40
2023-05-19T11:31:55.432Z,4.50
2023-05-19T11:32:55.417Z,4.60
2023-05-19T11:33:55.384Z,5.30
2023-05-19T11:34:55.371Z,6.20
2023-05-19T11:35:55.375Z,6.20
2023-05-19T11:36:55.350Z,5.60
2023-05-19T11:37:55.331Z,4.90
2023-05-19T11:38:55.323Z,5.20
2023-05-19T11:39:55.305Z,6.10
2023-05-19T11:40:55.313Z,6.10
2023-05-19T11:41:55.281Z,3.50
2023-05-19T11:42:55.268Z,5.40
2023-05-19T11:43:55.257Z,5.10
2023-05-19T11:44:55.261Z,12.70
2023-05-19T11:45:55.402Z,6.40
2023-05-19T11:46:55.242Z,5.60
2023-05-19T11:48:55.198Z,5.80
2023-05-19T11:49:55.193Z,6.50
2023-05-19T11:50:55.176Z,6.40
2023-05-19T11:51:55.151Z,8.10
2023-05-19T11:52:55.151Z,5.80
2023-05-19T11:53:55.123Z,5.30
2023-05-19T11:54:55.126Z,5.30
2023-05-19T11:55:55.095Z,2.20
2023-05-19T11:56:55.090Z,5.00
2023-05-19T11:58:03.015Z,7.70
2023-05-19T11:58:56.094Z,5.10
2023-05-19T11:59:55.078Z,4.80
2023-05-19T12:00:55.042Z,6.10
2023-05-19T12:01:55.018Z,4.60
2023-05-19T12:02:55.044Z,6.60
2023-05-19T12:03:55.200Z,5.10
2023-05-19T12:04:55.075Z,5.30
2023-05-19T12:05:54.987Z,5.50
2023-05-19T12:06:54.951Z,5.10
2023-05-19T12:07:54.940Z,5.00
2023-05-19T12:08:54.945Z,4.40
2023-05-19T12:09:54.930Z,5.10
2023-05-19T12:10:54.942Z,4.70
2023-05-19T12:11:54.888Z,6.80
2023-05-19T12:12:54.895Z,5.10
2023-05-19T12:13:54.871Z,4.70
2023-05-19T12:14:54.852Z,6.70
2023-05-19T12:15:54.875Z,6.50
2023-05-19T12:16:54.919Z,4.90
2023-05-19T12:17:54.854Z,6.00
2023-05-19T12:18:54.826Z,4.60
2023-05-19T12:19:54.775Z,3.80
2023-05-19T12:20:54.775Z,5.60
2023-05-19T12:21:54.756Z,6.00
2023-05-19T12:22:54.757Z,4.70
2023-05-19T12:23:54.734Z,8.00
2023-05-19T12:24:54.722Z,3.10
2023-05-19T12:25:54.701Z,4.70
2023-05-19T12:26:54.704Z,3.60
2023-05-19T12:27:56.037Z,4.70
2023-05-19T12:28:54.665Z,2.70
2023-05-19T12:29:54.650Z,4.50
2023-05-19T12:30:54.637Z,4.80
2023-05-19T12:31:54.665Z,5.90
2023-05-19T12:32:54.631Z,2.70
2023-05-19T12:33:54.595Z,3.60
2023-05-19T12:34:54.600Z,5.30
2023-05-19T12:35:54.590Z,5.40
2023-05-19T12:36:54.570Z,3.80
2023-05-19T12:37:54.556Z,4.20
2023-05-19T12:38:54.573Z,4.40
2023-05-19T12:39:54.519Z,3.40
2023-05-19T12:40:54.518Z,2.70
2023-05-19T12:41:54.508Z,4.60
2023-05-19T12:42:54.498Z,3.10
2023-05-19T12:43:54.469Z,4.90
2023-05-19T12:44:54.462Z,5.70
2023-05-19T12:45:54.493Z,4.80
2023-05-19T12:46:54.475Z,6.30
2023-05-19T12:47:54.468Z,7.20
2023-05-19T12:48:54.408Z,4.60
2023-05-19T12:49:54.398Z,5.60
2023-05-19T12:50:54.413Z,6.00
2023-05-19T12:51:54.418Z,3.00
2023-05-19T12:52:54.364Z,5.20
2023-05-19T12:53:54.361Z,7.10
2023-05-19T12:54:54.380Z,5.00
2023-05-19T12:55:54.328Z,7.10
2023-05-19T12:56:54.310Z,3.30
2023-05-19T12:57:54.297Z,6.40
2023-05-19T12:58:54.280Z,5.00
2023-05-19T12:59:54.277Z,4.00
2023-05-19T13:00:54.364Z,5.60
2023-05-19T13:01:54.275Z,6.20
2023-05-19T13:02:54.265Z,2.80
2023-05-19T13:03:54.313Z,4.80
2023-05-19T13:04:54.213Z,5.50
2023-05-19T13:05:54.182Z,5.60
2023-05-19T13:06:54.167Z,3.60
2023-05-19T13:07:54.151Z,5.70
2023-05-19T13:08:54.139Z,5.60
2023-05-19T13:09:54.136Z,5.30
2023-05-19T13:10:54.124Z,5.60
2023-05-19T13:11:54.119Z,8.40
2023-05-19T13:12:54.107Z,6.40
2023-05-19T13:13:54.093Z,4.60
2023-05-19T13:14:55.655Z,5.70
2023-05-19T13:15:54.046Z,3.60
2023-05-19T13:16:54.083Z,4.30
2023-05-19T13:17:54.044Z,6.20
2023-05-19T13:18:54.567Z,4.50
2023-05-19T13:19:54.110Z,3.00
2023-05-19T13:20:53.995Z,5.60
2023-05-19T13:21:53.968Z,5.30
2023-05-19T13:22:53.991Z,4.30
2023-05-19T13:23:53.962Z,4.50
2023-05-19T13:24:53.931Z,4.30
2023-05-19T13:25:53.912Z,4.50
2023-05-19T13:26:54.048Z,7.10
2023-05-19T13:27:53.901Z,4.70
2023-05-19T13:28:53.904Z,5.80
2023-05-19T13:29:53.889Z,5.50
2023-05-19T13:30:53.877Z,4.80
2023-05-19T13:31:53.837Z,5.20
2023-05-19T13:32:53.933Z,3.90
2023-05-19T13:33:53.815Z,4.90
2023-05-19T13:34:53.816Z,3.60
2023-05-19T13:35:53.784Z,3.80
2023-05-19T13:36:53.813Z,5.90
2023-05-19T13:37:53.771Z,5.20
2023-05-19T13:38:53.749Z,4.20
2023-05-19T13:39:53.737Z,4.30
2023-05-19T13:40:53.726Z,3.70
2023-05-19T13:41:53.705Z,3.90
2023-05-19T13:42:53.709Z,5.30
2023-05-19T13:43:53.687Z,5.80
2023-05-19T13:44:53.669Z,4.00
2023-05-19T13:45:53.657Z,4.20
2023-05-19T13:46:53.674Z,3.50
2023-05-19T13:47:53.675Z,4.20
2023-05-19T13:48:53.618Z,4.50
2023-05-19T13:49:53.598Z,6.70
2023-05-19T13:50:53.620Z,6.30
2023-05-19T13:51:53.588Z,5.50
2023-05-19T13:52:53.578Z,7.30
2023-05-19T13:53:53.549Z,3.10
2023-05-19T13:54:53.544Z,4.90
2023-05-19T13:55:53.534Z,4.40
2023-05-19T13:56:53.535Z,4.30
2023-05-19T13:57:53.509Z,5.90
2023-05-19T13:58:53.494Z,4.60
2023-05-19T14:00:01.916Z,4.70
2023-05-19T14:00:54.494Z,5.40
2023-05-19T14:01:53.519Z,3.20
2023-05-19T14:02:53.507Z,3.20
2023-05-19T14:03:53.541Z,4.60
2023-05-19T14:04:53.419Z,6.10
2023-05-19T14:05:53.429Z,4.10
2023-05-19T14:06:53.435Z,3.00
2023-05-19T14:07:53.365Z,3.40
2023-05-19T14:08:53.392Z,5.80
2023-05-19T14:09:53.415Z,5.00
2023-05-19T14:10:53.390Z,3.70
2023-05-19T14:11:53.326Z,4.40
2023-05-19T14:13:54.281Z,4.20
2023-05-19T14:14:53.279Z,4.70
2023-05-19T14:15:53.316Z,5.60
2023-05-19T14:16:53.251Z,5.60
2023-05-19T14:17:53.332Z,4.60
2023-05-19T14:18:53.232Z,5.00
2023-05-19T14:19:53.224Z,3.30
2023-05-19T14:20:53.226Z,4.70
2023-05-19T14:21:53.182Z,6.10
2023-05-19T14:22:53.177Z,4.20
2023-05-19T14:23:53.158Z,5.20
2023-05-19T14:24:53.168Z,2.30
2023-05-19T14:25:53.137Z,4.50
2023-05-19T14:26:53.114Z,6.50
2023-05-19T14:27:53.096Z,5.30
2023-05-19T14:28:53.093Z,2.20
2023-05-19T14:29:53.096Z,5.70
2023-05-19T14:30:53.058Z,5.10
2023-05-19T14:31:53.068Z,5.80
2023-05-19T14:32:53.113Z,2.30
2023-05-19T14:33:53.048Z,6.10
2023-05-19T14:34:53.048Z,3.30
2023-05-19T14:35:53.000Z,3.40
2023-05-19T14:36:52.981Z,4.90
2023-05-19T14:37:52.966Z,4.80
2023-05-19T14:38:52.996Z,4.20
2023-05-19T14:39:52.953Z,8.20
2023-05-19T14:40:52.932Z,4.50
2023-05-19T14:41:53.024Z,4.00
2023-05-19T14:42:52.932Z,5.00
2023-05-19T14:43:52.908Z,5.20
2023-05-19T14:44:52.888Z,4.20
2023-05-19T14:45:52.872Z,4.60
2023-05-19T14:46:52.905Z,4.10
2023-05-19T14:47:52.956Z,4.80
2023-05-19T14:48:52.838Z,4.40
2023-05-19T14:49:52.814Z,2.70
2023-05-19T14:50:52.825Z,6.10
2023-05-19T14:51:52.806Z,6.30
2023-05-19T14:52:52.798Z,5.60
2023-05-19T14:53:52.769Z,6.60
2023-05-19T14:54:52.758Z,2.90
2023-05-19T14:55:52.743Z,4.00
2023-05-19T14:56:52.736Z,3.70
2023-05-19T14:57:52.736Z,4.40
2023-05-19T14:58:52.709Z,3.30
2023-05-19T14:59:52.694Z,6.50
2023-05-19T15:00:52.717Z,4.60
2023-05-19T15:01:52.682Z,5.90
2023-05-19T15:02:52.701Z,2.90
2023-05-19T15:03:52.730Z,3.40
2023-05-19T15:04:52.627Z,3.60
2023-05-19T15:05:52.621Z,3.60
2023-05-19T15:07:05.830Z,4.10
2023-05-19T15:07:53.606Z,5.40
2023-05-19T15:08:52.571Z,4.30
2023-05-19T15:09:52.556Z,4.20
2023-05-19T15:10:52.551Z,3.90
2023-05-19T15:11:52.546Z,2.70
2023-05-19T15:12:52.527Z,3.50
2023-05-19T15:13:52.525Z,4.00
2023-05-19T15:14:52.514Z,3.50
2023-05-19T15:15:54.780Z,3.10
2023-05-19T15:16:53.533Z,2.10
2023-05-19T15:17:52.491Z,4.80
2023-05-19T15:18:52.475Z,3.00
2023-05-19T15:19:52.426Z,2.70
2023-05-19T15:20:52.430Z,2.50
2023-05-19T15:21:52.417Z,2.50
2023-05-19T15:22:52.398Z,3.30
2023-05-19T15:23:52.378Z,3.70
2023-05-19T15:24:52.374Z,1.90
2023-05-19T15:25:52.361Z,2.10
2023-05-19T15:26:52.393Z,4.20
2023-05-19T15:27:52.325Z,2.60
2023-05-19T15:28:52.329Z,4.50
2023-05-19T15:29:52.292Z,3.70
2023-05-19T15:30:52.321Z,2.70
2023-05-19T15:31:52.273Z,5.30
2023-05-19T15:32:52.308Z,3.70
2023-05-19T15:33:52.247Z,3.10
2023-05-19T15:34:52.261Z,2.40
2023-05-19T15:35:52.365Z,3.40
2023-05-19T15:36:52.210Z,5.00
2023-05-19T15:37:52.192Z,2.70
2023-05-19T15:38:52.180Z,1.80
2023-05-19T15:39:52.182Z,3.60
2023-05-19T15:40:52.163Z,3.00
2023-05-19T15:41:52.186Z,4.00
2023-05-19T15:42:52.125Z,3.20
2023-05-19T15:43:52.114Z,3.50
2023-05-19T15:44:52.116Z,4.00
2023-05-19T15:45:52.181Z,3.40
2023-05-19T15:46:52.111Z,4.30
2023-05-19T15:47:52.105Z,3.60
2023-05-19T15:48:52.053Z,2.10
2023-05-19T15:49:52.043Z,3.90
2023-05-19T15:50:52.025Z,2.60
2023-05-19T15:51:52.007Z,5.50
2023-05-19T15:52:51.995Z,4.00
2023-05-19T15:53:51.989Z,5.50
2023-05-19T15:54:51.985Z,4.50
2023-05-19T15:55:51.956Z,2.70
2023-05-19T15:56:51.944Z,3.60
2023-05-19T15:57:51.931Z,2.50
2023-05-19T15:58:51.929Z,4.80
2023-05-19T15:59:51.906Z,3.50
2023-05-19T16:00:51.893Z,2.90
2023-05-19T16:01:53.070Z,3.10
2023-05-19T16:02:51.927Z,3.40
2023-05-19T16:03:51.963Z,3.20
2023-05-19T16:04:51.838Z,2.70
2023-05-19T16:05:51.829Z,3.90
2023-05-19T16:06:51.819Z,4.90
2023-05-19T16:07:51.823Z,3.00
2023-05-19T16:08:51.800Z,2.40
2023-05-19T16:09:51.777Z,2.20
2023-05-19T16:10:51.763Z,2.30
2023-05-19T16:11:51.747Z,3.10
2023-05-19T16:12:51.749Z,4.60
2023-05-19T16:13:51.717Z,2.20
2023-05-19T16:14:51.712Z,4.20
2023-05-19T16:15:51.713Z,2.60
2023-05-19T16:16:51.724Z,4.00
2023-05-19T16:17:51.695Z,2.20
2023-05-19T16:18:51.685Z,3.30
2023-05-19T16:19:51.645Z,3.10
2023-05-19T16:20:51.638Z,4.20
2023-05-19T16:21:51.627Z,5.40
2023-05-19T16:22:51.605Z,4.10
2023-05-19T16:23:51.592Z,4.00
2023-05-19T16:24:51.584Z,3.80
2023-05-19T16:25:51.566Z,4.00
2023-05-19T16:26:51.573Z,3.20
2023-05-19T16:27:51.545Z,2.60
2023-05-19T16:28:51.539Z,2.30
2023-05-19T16:29:51.514Z,2.50
2023-05-19T16:30:51.521Z,3.50
2023-05-19T16:31:51.579Z,2.40
2023-05-19T16:32:51.562Z,3.90
2023-05-19T16:33:51.458Z,4.50
2023-05-19T16:34:51.454Z,3.30
2023-05-19T16:35:51.503Z,3.70
2023-05-19T16:36:51.432Z,4.10
2023-05-19T16:37:51.407Z,2.40
2023-05-19T16:38:51.401Z,3.10
2023-05-19T16:39:51.382Z,4.80
2023-05-19T16:40:51.388Z,3.90
2023-05-19T16:41:51.357Z,3.00
2023-05-19T16:42:51.346Z,4.00
2023-05-19T16:43:51.333Z,3.30
2023-05-19T16:44:51.331Z,2.80
2023-05-19T16:45:51.353Z,3.20
2023-05-19T16:46:51.288Z,3.20
2023-05-19T16:47:51.346Z,4.00
2023-05-19T16:48:51.268Z,2.80
2023-05-19T16:49:51.264Z,4.70
2023-05-19T16:50:51.249Z,2.00
2023-05-19T16:51:51.223Z,1.90
2023-05-19T16:52:51.217Z,3.80
2023-05-19T16:53:51.205Z,4.90
2023-05-19T16:54:51.203Z,4.50
2023-05-19T16:55:51.170Z,5.50
2023-05-19T16:56:51.245Z,3.20
2023-05-19T16:57:51.180Z,4.70
2023-05-19T16:58:51.148Z,4.10
2023-05-19T16:59:51.122Z,3.60
2023-05-19T17:00:51.142Z,2.60
2023-05-19T17:01:51.148Z,3.60
2023-05-19T17:02:51.158Z,5.80
2023-05-19T17:03:51.141Z,4.20
2023-05-19T17:04:51.051Z,2.60
2023-05-19T17:05:51.039Z,2.30
2023-05-19T17:06:51.030Z,3.30
2023-05-19T17:07:51.007Z,4.20
2023-05-19T17:08:51.031Z,1.90
2023-05-19T17:09:50.992Z,3.50
2023-05-19T17:10:50.975Z,2.90
2023-05-19T17:11:50.957Z,2.30
2023-05-19T17:12:50.961Z,1.80
2023-05-19T17:13:50.943Z,3.40
2023-05-19T17:14:50.927Z,3.00
2023-05-19T17:15:50.907Z,2.30
2023-05-19T17:16:50.972Z,3.20
2023-05-19T17:17:50.933Z,3.60
2023-05-19T17:18:50.899Z,5.00
2023-05-19T17:19:50.853Z,2.70
2023-05-19T17:20:50.839Z,4.50
2023-05-19T17:21:50.825Z,2.30
2023-05-19T17:22:50.830Z,3.10
2023-05-19T17:23:50.827Z,3.70
2023-05-19T17:24:50.799Z,3.70
2023-05-19T17:25:50.781Z,2.60
2023-05-19T17:26:50.776Z,6.20
2023-05-19T17:27:50.760Z,1.80
2023-05-19T17:28:50.749Z,4.80
2023-05-19T17:29:57.800Z,3.70
2023-05-19T17:30:50.709Z,6.70
2023-05-19T17:31:50.751Z,3.90
2023-05-19T17:32:50.804Z,3.20